Time;durP1;ratioP1;P1;durP2;ratioP2;P2;SDS_P1;SDS_P2;PMS_P1;PMS_P2;Temp;Humidity;BMP_temperature;BMP_pressure;BME280_temperature;BME280_humidity;BME280_pressure;Samples;Min_cycle;Max_cycle;Signal;HPM_P1;HPM_P2
2022/02/18 00:01:04;;;;;;;18.13;3.47;;;7.20;99.90;;;;;;5003449;28;20079;-77
2022/02/18 00:03:30;;;;;;;25.00;2.70;;;7.20;99.90;;;;;;5036040;28;20025;-78
2022/02/18 00:05:57;;;;;;;16.60;3.13;;;7.20;99.90;;;;;;5054243;28;20033;-74
2022/02/18 00:08:24;;;;;;;21.87;3.27;;;7.20;99.90;;;;;;5053944;28;20025;-75
2022/02/18 00:10:49;;;;;;;23.57;2.90;;;7.20;99.90;;;;;;5053795;28;20021;-75
2022/02/18 00:13:16;;;;;;;18.60;2.60;;;7.20;99.90;;;;;;5035797;28;20033;-78
2022/02/18 00:15:42;;;;;;;21.03;2.70;;;7.20;99.90;;;;;;5019239;28;20025;-75
2022/02/18 00:18:07;;;;;;;20.00;3.00;;;7.30;99.90;;;;;;5019370;28;20029;-75
2022/02/18 00:20:34;;;;;;;16.77;3.13;;;7.30;99.90;;;;;;5019723;28;20048;-75
2022/02/18 00:23:01;;;;;;;17.17;3.50;;;7.20;99.90;;;;;;5003049;28;20029;-78
2022/02/18 00:25:27;;;;;;;18.73;3.23;;;7.20;99.90;;;;;;5035886;28;20021;-75
2022/02/18 00:27:53;;;;;;;15.67;2.63;;;7.30;99.90;;;;;;5053506;28;20040;-75
2022/02/18 00:30:19;;;;;;;20.20;2.67;;;7.30;99.90;;;;;;5053499;28;20028;-77
2022/02/18 00:32:45;;;;;;;22.90;3.80;;;7.30;99.90;;;;;;5035770;28;20053;-75
2022/02/18 00:35:11;;;;;;;19.30;2.80;;;7.30;99.90;;;;;;5053394;28;20040;-78
2022/02/18 00:37:37;;;;;;;14.37;2.40;;;7.40;99.90;;;;;;5053912;28;20029;-78
2022/02/18 00:40:04;;;;;;;16.07;2.40;;;7.40;99.90;;;;;;5053235;28;20033;-78
2022/02/18 00:42:29;;;;;;;13.73;1.80;;;7.30;99.90;;;;;;5018966;28;20413;-77
2022/02/18 00:44:55;;;;;;;23.50;2.67;;;7.30;99.90;;;;;;5019220;28;20032;-78
2022/02/18 00:47:21;;;;;;;15.03;2.97;;;7.40;99.90;;;;;;5035518;28;20021;-77
2022/02/18 00:49:47;;;;;;;18.07;3.23;;;7.40;99.90;;;;;;5035786;28;20031;-78
2022/02/18 00:52:15;;;;;;;17.63;1.87;;;7.40;99.90;;;;;;5053318;28;20032;-77
2022/02/18 00:54:41;;;;;;;20.93;3.10;;;7.40;99.90;;;;;;5053234;28;20523;-77
2022/02/18 00:57:07;;;;;;;17.40;3.20;;;7.40;99.90;;;;;;5053277;28;20041;-77
2022/02/18 00:59:33;;;;;;;22.07;2.90;;;7.40;99.90;;;;;;5019363;28;20033;-74
2022/02/18 01:01:58;;;;;;;19.33;2.50;;;7.40;99.90;;;;;;5035355;28;20041;-75
2022/02/18 01:04:24;;;;;;;19.13;2.97;;;7.30;99.90;;;;;;5019117;28;20400;-77
2022/02/18 01:06:49;;;;;;;16.37;2.27;;;7.30;99.90;;;;;;5035283;28;20444;-78
2022/02/18 01:09:15;;;;;;;16.07;2.13;;;7.40;99.90;;;;;;5002434;28;20056;-75
2022/02/18 01:11:41;;;;;;;19.67;2.70;;;7.40;99.90;;;;;;5053216;28;20389;-77
2022/02/18 01:14:07;;;;;;;9.77;1.70;;;7.30;99.90;;;;;;5018946;28;20025;-78
2022/02/18 01:16:33;;;;;;;18.03;2.43;;;7.30;99.90;;;;;;5035171;28;20086;-77
2022/02/18 01:18:58;;;;;;;19.80;3.00;;;7.40;99.90;;;;;;5035072;28;20027;-75
2022/02/18 01:21:25;;;;;;;17.40;3.00;;;7.40;99.90;;;;;;5018832;28;20120;-75
2022/02/18 01:23:51;;;;;;;13.27;2.43;;;7.30;99.90;;;;;;5035140;28;20028;-78
2022/02/18 01:26:16;;;;;;;14.50;3.03;;;7.30;99.90;;;;;;5055933;28;20041;-75
2022/02/18 01:28:42;;;;;;;17.27;2.73;;;7.40;99.90;;;;;;5056970;28;20070;-75
2022/02/18 01:31:08;;;;;;;18.57;2.63;;;7.30;99.90;;;;;;5057020;28;20377;-75
2022/02/18 01:33:34;;;;;;;21.70;2.83;;;7.40;99.90;;;;;;5039168;28;20086;-75
2022/02/18 01:36:00;;;;;;;19.33;2.20;;;7.40;99.90;;;;;;5038931;28;20469;-75
2022/02/18 01:38:26;;;;;;;17.27;2.87;;;7.30;99.90;;;;;;5056648;28;20112;-77
2022/02/18 01:40:52;;;;;;;15.60;2.90;;;7.30;99.90;;;;;;5038827;28;20028;-75
2022/02/18 01:43:18;;;;;;;18.87;2.50;;;7.40;99.90;;;;;;5038749;28;20024;-75
2022/02/18 01:45:44;;;;;;;20.07;2.77;;;7.40;99.90;;;;;;5056570;28;20385;-75
2022/02/18 01:48:10;;;;;;;16.27;2.10;;;7.40;99.90;;;;;;5038658;28;20033;-75
2022/02/18 01:50:36;;;;;;;13.10;1.80;;;7.40;99.90;;;;;;5005713;28;20418;-75
2022/02/18 01:53:02;;;;;;;14.77;3.13;;;7.40;99.90;;;;;;5022137;28;20037;-75
2022/02/18 01:55:28;;;;;;;21.93;2.60;;;7.50;99.90;;;;;;5038625;28;20428;-75
2022/02/18 01:57:55;;;;;;;16.60;2.43;;;7.40;99.90;;;;;;5038496;28;20053;-75
2022/02/18 02:00:26;;;;;;;17.03;2.17;;;7.40;99.90;;;;;;5022234;28;20083;-75
2022/02/18 02:02:53;;;;;;;13.13;2.40;;;7.50;99.90;;;;;;5056396;28;20104;-75
2022/02/18 02:05:20;;;;;;;17.23;2.57;;;7.40;99.90;;;;;;5056305;28;20393;-74
2022/02/18 02:07:46;;;;;;;14.63;2.27;;;7.60;99.90;;;;;;5056157;28;20032;-75
2022/02/18 02:10:13;;;;;;;16.77;2.87;;;7.50;99.90;;;;;;5038506;28;20021;-75
2022/02/18 02:12:41;;;;;;;18.07;2.50;;;7.50;99.90;;;;;;5037991;28;20035;-75
2022/02/18 02:15:11;;;;;;;14.77;2.40;;;7.50;99.90;;;;;;5038201;28;20111;-75
2022/02/18 02:17:37;;;;;;;15.70;3.07;;;7.60;99.90;;;;;;5055962;28;20063;-75
2022/02/18 02:20:04;;;;;;;19.77;2.77;;;7.60;99.90;;;;;;5056342;28;20032;-75
2022/02/18 02:22:30;;;;;;;11.93;2.00;;;7.60;99.90;;;;;;5055978;28;20473;-75
2022/02/18 02:24:56;;;;;;;12.20;2.17;;;7.60;99.90;;;;;;5038010;28;20036;-76
2022/02/18 02:27:22;;;;;;;14.60;2.43;;;7.50;99.90;;;;;;5037872;28;20036;-75
2022/02/18 02:29:49;;;;;;;16.73;2.03;;;7.60;99.90;;;;;;5055869;28;20037;-75
2022/02/18 02:32:16;;;;;;;13.10;1.90;;;7.70;99.90;;;;;;5055575;28;20025;-75
2022/02/18 02:34:42;;;;;;;9.73;1.73;;;7.60;99.90;;;;;;5055692;28;20036;-74
2022/02/18 02:37:08;;;;;;;15.30;2.17;;;7.60;99.90;;;;;;5055029;28;20370;-75
2022/02/18 02:39:34;;;;;;;12.83;1.80;;;7.70;99.90;;;;;;5037645;28;20075;-75
2022/02/18 02:42:02;;;;;;;21.37;3.00;;;7.70;99.90;;;;;;5037737;28;20044;-75
2022/02/18 02:44:28;;;;;;;20.17;2.73;;;7.60;99.90;;;;;;5055890;28;20355;-75
2022/02/18 02:46:54;;;;;;;20.37;3.50;;;7.70;99.90;;;;;;5037738;28;20078;-75
2022/02/18 02:49:20;;;;;;;18.07;3.70;;;7.70;99.90;;;;;;5037306;28;20029;-75
2022/02/18 02:51:46;;;;;;;20.73;2.97;;;7.70;99.90;;;;;;5037358;28;20044;-76
2022/02/18 02:54:12;;;;;;;9.90;3.03;;;7.70;99.90;;;;;;5021415;28;20431;-75
2022/02/18 02:56:38;;;;;;;16.50;2.67;;;7.70;99.90;;;;;;5055220;28;20056;-74
2022/02/18 02:59:04;;;;;;;21.07;3.90;;;7.70;99.90;;;;;;5038130;28;20028;-75
2022/02/18 03:01:29;;;;;;;15.53;3.43;;;7.80;99.90;;;;;;5037715;28;20036;-75
2022/02/18 03:03:55;;;;;;;23.30;3.97;;;7.70;99.90;;;;;;5037227;28;20116;-75
2022/02/18 03:06:21;;;;;;;24.47;4.80;;;7.70;99.90;;;;;;5055173;28;20060;-75
2022/02/18 03:08:47;;;;;;;17.83;4.37;;;7.70;99.90;;;;;;5037158;28;20039;-75
2022/02/18 03:11:16;;;;;;;17.23;3.97;;;7.70;99.90;;;;;;5037451;28;20452;-75
2022/02/18 03:13:42;;;;;;;14.97;3.80;;;7.80;99.90;;;;;;5037804;28;20119;-75
2022/02/18 03:16:08;;;;;;;18.30;4.77;;;7.70;99.90;;;;;;5054771;28;20032;-75
2022/02/18 03:18:34;;;;;;;18.13;3.63;;;7.60;99.90;;;;;;5037492;28;20025;-75
2022/02/18 03:20:59;;;;;;;19.43;4.13;;;7.70;99.90;;;;;;5037140;28;20112;-76
2022/02/18 03:23:25;;;;;;;22.80;4.60;;;7.70;99.90;;;;;;5054910;28;20029;-76
2022/02/18 03:25:51;;;;;;;28.83;4.53;;;7.70;99.90;;;;;;5037057;28;20039;-74
2022/02/18 03:28:16;;;;;;;15.93;3.77;;;7.70;99.90;;;;;;5036869;28;20024;-76
2022/02/18 03:30:42;;;;;;;17.77;3.37;;;7.70;99.90;;;;;;5036805;28;20033;-75
2022/02/18 03:33:11;;;;;;;18.07;4.27;;;7.70;99.90;;;;;;5036906;28;20037;-75
2022/02/18 03:35:37;;;;;;;20.77;3.87;;;7.60;99.90;;;;;;5036818;28;20021;-77
2022/02/18 03:38:03;;;;;;;24.47;4.17;;;7.70;99.90;;;;;;5020269;28;20029;-75
2022/02/18 03:40:28;;;;;;;20.47;3.00;;;7.80;99.90;;;;;;5054467;28;20036;-75
2022/02/18 03:42:54;;;;;;;19.83;3.03;;;7.60;99.90;;;;;;5003810;28;20100;-77
2022/02/18 03:45:20;;;;;;;21.23;3.70;;;7.70;99.90;;;;;;5020073;28;20029;-75
2022/02/18 03:47:45;;;;;;;27.87;3.90;;;7.70;99.90;;;;;;5054343;28;20033;-76
2022/02/18 03:50:11;;;;;;;16.30;3.60;;;7.70;99.90;;;;;;5019841;28;20041;-76
2022/02/18 03:52:37;;;;;;;22.37;3.67;;;7.70;99.90;;;;;;5054367;28;20071;-76
2022/02/18 03:55:02;;;;;;;28.43;3.53;;;7.80;99.90;;;;;;5036454;28;20029;-76
2022/02/18 03:57:28;;;;;;;22.70;4.20;;;7.70;99.90;;;;;;5036116;28;20551;-76
2022/02/18 03:59:54;;;;;;;23.17;4.43;;;7.70;99.90;;;;;;5036321;28;20031;-76
2022/02/18 04:02:19;;;;;;;18.97;2.83;;;7.70;99.90;;;;;;5036270;28;20448;-75
2022/02/18 04:04:45;;;;;;;18.20;3.47;;;7.70;99.90;;;;;;5019763;28;20033;-76
2022/02/18 04:07:11;;;;;;;19.97;3.10;;;7.70;99.90;;;;;;5003320;28;20033;-75
2022/02/18 04:09:37;;;;;;;19.37;2.83;;;7.70;99.90;;;;;;5036321;28;20363;-75
2022/02/18 04:12:04;;;;;;;18.90;3.00;;;7.70;99.90;;;;;;5054038;28;20485;-75
2022/02/18 04:14:30;;;;;;;24.83;3.67;;;7.70;99.90;;;;;;5035935;28;20017;-75
2022/02/18 04:16:56;;;;;;;18.20;3.10;;;7.80;99.90;;;;;;5054063;28;20174;-75
2022/02/18 04:19:22;;;;;;;21.40;3.33;;;7.90;99.90;;;;;;5053821;28;20029;-75
2022/02/18 04:21:48;;;;;;;25.53;3.93;;;7.90;99.90;;;;;;5035939;28;20028;-75
2022/02/18 04:24:13;;;;;;;26.70;3.83;;;7.80;99.90;;;;;;5053815;28;20035;-75
2022/02/18 04:26:39;;;;;;;25.13;4.33;;;7.80;99.90;;;;;;5019323;28;20477;-75
2022/02/18 04:29:05;;;;;;;23.30;3.40;;;7.80;99.90;;;;;;5053541;28;20044;-75
2022/02/18 04:31:31;;;;;;;22.83;3.77;;;7.80;99.90;;;;;;5053551;28;20416;-75
2022/02/18 04:33:56;;;;;;;32.13;4.10;;;7.80;99.90;;;;;;5002667;28;20036;-75
2022/02/18 04:36:22;;;;;;;28.27;3.90;;;7.80;99.90;;;;;;5035630;28;20108;-75
2022/02/18 04:38:48;;;;;;;27.13;4.43;;;7.90;99.90;;;;;;5035580;28;20461;-75
2022/02/18 04:41:13;;;;;;;29.97;4.40;;;7.90;99.90;;;;;;5035764;28;20087;-76
2022/02/18 04:43:39;;;;;;;22.63;3.90;;;7.90;99.90;;;;;;5035834;28;20457;-75
2022/02/18 04:46:04;;;;;;;20.23;3.67;;;7.90;99.90;;;;;;5035999;28;20048;-76
2022/02/18 04:48:30;;;;;;;17.77;4.13;;;7.90;99.90;;;;;;5019069;28;20021;-76
2022/02/18 04:50:56;;;;;;;26.07;3.57;;;7.90;99.90;;;;;;5035458;28;20025;-76
2022/02/18 04:53:21;;;;;;;22.87;3.97;;;7.90;99.90;;;;;;5035545;28;20036;-76
2022/02/18 04:55:47;;;;;;;26.13;4.57;;;7.90;99.90;;;;;;5035569;28;20025;-77
2022/02/18 04:58:13;;;;;;;29.37;4.70;;;7.90;99.90;;;;;;5018951;28;20067;-76
2022/02/18 05:00:38;;;;;;;25.33;4.03;;;7.90;99.90;;;;;;5057510;28;20033;-76
2022/02/18 05:03:04;;;;;;;22.63;3.63;;;7.90;99.90;;;;;;5042037;28;20082;-75
2022/02/18 05:05:30;;;;;;;27.27;5.67;;;7.80;99.90;;;;;;5041863;28;20342;-75
2022/02/18 05:07:55;;;;;;;25.13;3.83;;;7.90;99.90;;;;;;5009441;28;20064;-76
2022/02/18 05:10:21;;;;;;;31.60;4.67;;;7.90;99.90;;;;;;5035374;28;20041;-75
2022/02/18 05:12:46;;;;;;;24.93;3.90;;;7.90;99.90;;;;;;5041053;28;20120;-76
2022/02/18 05:15:12;;;;;;;26.27;3.83;;;7.90;99.90;;;;;;5041909;28;20088;-75
2022/02/18 05:17:38;;;;;;;31.53;4.37;;;7.90;99.90;;;;;;5042063;28;20025;-75
2022/02/18 05:20:04;;;;;;;31.37;6.03;;;7.90;99.90;;;;;;5059837;28;20044;-76
2022/02/18 05:22:29;;;;;;;26.07;4.67;;;7.90;99.90;;;;;;5041925;28;20037;-75
2022/02/18 05:24:55;;;;;;;24.10;3.37;;;8.00;99.90;;;;;;5042364;28;20415;-75
2022/02/18 05:27:21;;;;;;;27.03;4.50;;;8.00;99.90;;;;;;5025378;28;20025;-75
2022/02/18 05:29:47;;;;;;;26.53;4.07;;;8.00;99.90;;;;;;5042103;28;20056;-75
2022/02/18 05:32:12;;;;;;;39.33;5.63;;;8.10;99.90;;;;;;5025169;28;20033;-75
2022/02/18 05:34:38;;;;;;;27.10;4.10;;;8.10;99.90;;;;;;5025678;28;20025;-75
2022/02/18 05:37:04;;;;;;;24.83;4.97;;;8.10;99.90;;;;;;5025685;28;20021;-76
2022/02/18 05:39:30;;;;;;;23.50;4.07;;;8.00;99.90;;;;;;5041647;28;20033;-76
2022/02/18 05:41:56;;;;;;;30.33;5.10;;;8.00;99.90;;;;;;5041518;28;20104;-76
2022/02/18 05:44:22;;;;;;;27.67;5.07;;;8.10;99.90;;;;;;5025058;28;20025;-76
2022/02/18 05:46:47;;;;;;;25.90;4.50;;;8.00;99.90;;;;;;5041618;28;20033;-75
2022/02/18 05:49:13;;;;;;;25.70;3.80;;;8.10;99.90;;;;;;5041296;28;20025;-75
2022/02/18 05:51:39;;;;;;;29.63;5.80;;;8.10;99.90;;;;;;5059541;28;20031;-75
2022/02/18 05:54:05;;;;;;;31.17;4.37;;;8.10;99.90;;;;;;5041344;28;20071;-75
2022/02/18 05:56:31;;;;;;;32.20;5.00;;;8.10;99.90;;;;;;5041016;28;20025;-75
2022/02/18 05:58:56;;;;;;;36.27;6.53;;;8.10;99.90;;;;;;5041488;28;20052;-75
2022/02/18 06:01:22;;;;;;;27.70;5.40;;;8.10;99.90;;;;;;5024677;28;20051;-76
2022/02/18 06:03:48;;;;;;;25.73;4.63;;;8.10;99.90;;;;;;5059161;28;20078;-75
2022/02/18 06:06:15;;;;;;;23.50;4.87;;;8.00;99.90;;;;;;5059316;28;20017;-75
2022/02/18 06:08:41;;;;;;;24.47;4.33;;;8.10;99.90;;;;;;5041394;28;20505;-75
2022/02/18 06:11:06;;;;;;;29.67;4.90;;;8.10;99.90;;;;;;5024289;28;20025;-75
2022/02/18 06:13:32;;;;;;;25.63;5.23;;;8.10;99.90;;;;;;5056139;28;20358;-75
2022/02/18 06:15:58;;;;;;;31.53;4.67;;;8.20;99.90;;;;;;5037911;28;20422;-75
2022/02/18 06:18:24;;;;;;;32.33;4.80;;;8.10;99.90;;;;;;5055851;28;20480;-78
2022/02/18 06:20:50;;;;;;;31.83;5.57;;;8.10;99.90;;;;;;5005065;28;20048;-74
2022/02/18 06:23:16;;;;;;;31.50;5.43;;;8.10;99.90;;;;;;5022273;28;20036;-75
2022/02/18 06:25:41;;;;;;;35.77;5.37;;;8.10;99.90;;;;;;5038327;28;20033;-74
2022/02/18 06:28:16;;;;;;;43.57;5.30;;;8.20;99.90;;;;;;5055797;28;20029;-74
2022/02/18 06:30:42;;;;;;;30.23;4.97;;;8.10;99.90;;;;;;5055622;28;20043;-75
2022/02/18 06:33:08;;;;;;;26.83;4.43;;;8.20;99.90;;;;;;5038202;28;20457;-75
2022/02/18 06:35:35;;;;;;;29.40;4.70;;;8.20;99.90;;;;;;5037331;28;20036;-75
2022/02/18 06:38:01;;;;;;;22.50;3.80;;;8.10;99.90;;;;;;5037460;28;20027;-74
2022/02/18 06:40:26;;;;;;;28.27;4.40;;;8.10;99.90;;;;;;5055465;28;20107;-75
2022/02/18 06:42:52;;;;;;;23.10;3.00;;;8.30;99.90;;;;;;5037516;28;20029;-74
2022/02/18 06:45:18;;;;;;;22.27;3.17;;;8.10;99.90;;;;;;5037739;28;20033;-78
2022/02/18 06:47:47;;;;;;;27.53;4.00;;;8.10;99.90;;;;;;5055304;28;20082;-74
2022/02/18 06:50:15;;;;;;;21.90;3.97;;;8.10;99.90;;;;;;5037162;28;20036;-76
2022/02/18 06:52:41;;;;;;;32.73;4.93;;;8.10;99.90;;;;;;5055294;28;20025;-75
2022/02/18 06:55:08;;;;;;;36.57;4.77;;;8.20;99.90;;;;;;5036900;28;20385;-74
2022/02/18 06:57:38;;;;;;;27.50;4.10;;;8.10;99.90;;;;;;5016971;28;20048;-75
2022/02/18 07:00:04;;;;;;;21.67;4.70;;;8.00;99.90;;;;;;5018458;28;20025;-78
2022/02/18 07:02:30;;;;;;;25.57;3.83;;;8.00;99.90;;;;;;5030284;28;20052;-75
2022/02/18 07:04:56;;;;;;;28.67;4.17;;;8.10;99.90;;;;;;5035978;28;20040;-76
2022/02/18 07:07:22;;;;;;;21.57;3.20;;;8.00;99.90;;;;;;5033855;28;20481;-77
2022/02/18 07:09:48;;;;;;;27.40;4.53;;;8.00;99.90;;;;;;5017336;28;20025;-75
2022/02/18 07:12:13;;;;;;;21.30;3.30;;;7.90;99.90;;;;;;5050271;28;20040;-76
2022/02/18 07:14:39;;;;;;;31.10;3.93;;;7.90;99.90;;;;;;5053366;28;20389;-76
2022/02/18 07:17:05;;;;;;;23.10;3.57;;;7.90;99.90;;;;;;5007701;28;20030;-77
2022/02/18 07:19:31;;;;;;;29.33;5.70;;;8.00;99.90;;;;;;5016930;28;20087;-77
2022/02/18 07:21:59;;;;;;;21.37;3.77;;;7.90;99.90;;;;;;5044460;28;20033;-78
2022/02/18 07:24:33;;;;;;;24.07;5.80;;;7.90;99.90;;;;;;5032356;28;20037;-77
2022/02/18 07:26:59;;;;;;;25.93;4.93;;;7.90;99.90;;;;;;5032823;28;20508;-77
2022/02/18 07:29:24;;;;;;;23.07;3.83;;;7.90;99.90;;;;;;5016573;28;20065;-77
2022/02/18 07:31:50;;;;;;;25.87;4.03;;;7.90;99.90;;;;;;5033445;28;20114;-78
2022/02/18 07:34:15;;;;;;;20.80;3.53;;;7.90;99.90;;;;;;5053190;28;20082;-77
2022/02/18 07:36:41;;;;;;;32.00;3.93;;;8.00;99.90;;;;;;5003847;28;20029;-77
2022/02/18 07:39:07;;;;;;;23.67;4.03;;;8.00;99.90;;;;;;5036406;28;20508;-78
2022/02/18 07:41:32;;;;;;;19.70;3.50;;;7.90;99.90;;;;;;5019934;28;20025;-76
2022/02/18 07:43:58;;;;;;;22.60;3.30;;;8.00;99.90;;;;;;5003487;28;20527;-76
2022/02/18 07:46:24;;;;;;;25.50;4.13;;;8.00;99.90;;;;;;5036101;28;20040;-78
2022/02/18 07:48:49;;;;;;;20.80;4.70;;;8.00;99.90;;;;;;5003686;28;20029;-80
2022/02/18 07:51:15;;;;;;;24.50;4.20;;;8.00;99.90;;;;;;5019873;28;20040;-80
2022/02/18 07:53:41;;;;;;;19.57;3.10;;;8.10;99.90;;;;;;5036429;28;20505;-77
2022/02/18 07:56:06;;;;;;;21.60;5.43;;;8.10;99.90;;;;;;5003434;28;20106;-78
2022/02/18 07:58:32;;;;;;;22.53;4.47;;;8.10;99.90;;;;;;5032785;28;20061;-77
2022/02/18 08:00:58;;;;;;;24.80;4.43;;;8.20;99.90;;;;;;5033852;28;20075;-79
2022/02/18 08:03:26;;;;;;;24.63;4.80;;;8.10;99.90;;;;;;5032745;28;20521;-78
2022/02/18 08:05:53;;;;;;;19.47;4.53;;;8.10;99.90;;;;;;5016777;28;20041;-79
2022/02/18 08:08:20;;;;;;;19.33;4.43;;;8.20;99.90;;;;;;5032978;28;20121;-76
2022/02/18 08:10:46;;;;;;;20.80;4.07;;;8.20;99.90;;;;;;5034083;28;20033;-78
2022/02/18 08:13:12;;;;;;;21.43;4.90;;;8.10;99.90;;;;;;5032539;28;20517;-76
2022/02/18 08:15:38;;;;;;;25.43;4.43;;;8.20;99.90;;;;;;5016378;28;20045;-78
2022/02/18 08:18:05;;;;;;;27.07;4.13;;;8.30;99.90;;;;;;5032349;28;20108;-78
2022/02/18 08:20:31;;;;;;;18.27;4.13;;;8.30;99.90;;;;;;5034275;28;20045;-77
2022/02/18 08:22:56;;;;;;;19.10;4.53;;;8.30;99.90;;;;;;5032502;28;20493;-77
2022/02/18 08:25:22;;;;;;;16.10;4.00;;;8.40;99.90;;;;;;5016041;28;20441;-76
2022/02/18 08:27:47;;;;;;;23.43;4.80;;;8.40;99.90;;;;;;5032386;28;20052;-76
2022/02/18 08:30:13;;;;;;;20.37;3.70;;;8.40;99.90;;;;;;5032515;28;20040;-78
2022/02/18 08:32:39;;;;;;;22.60;4.30;;;8.40;99.90;;;;;;5015852;28;20083;-79
2022/02/18 08:35:05;;;;;;;22.47;4.40;;;8.50;99.90;;;;;;5015129;28;20071;-76
2022/02/18 08:37:30;;;;;;;20.60;4.37;;;8.50;99.90;;;;;;5032456;28;20497;-77
2022/02/18 08:39:56;;;;;;;22.60;4.10;;;8.50;99.90;;;;;;5015810;28;20026;-79
2022/02/18 08:42:22;;;;;;;17.03;4.30;;;8.50;99.90;;;;;;5016212;28;20049;-79
2022/02/18 08:44:48;;;;;;;26.33;4.87;;;8.50;99.90;;;;;;5032355;28;20549;-79
2022/02/18 08:47:14;;;;;;;17.97;3.63;;;8.60;99.90;;;;;;5033560;28;20113;-80
2022/02/18 08:49:42;;;;;;;25.10;5.30;;;8.60;99.90;;;;;;5015955;28;20029;-78
2022/02/18 08:52:08;;;;;;;23.73;5.60;;;8.60;99.90;;;;;;5032193;28;20524;-78
2022/02/18 08:54:33;;;;;;;28.03;5.93;;;8.60;99.90;;;;;;5015690;28;20025;-79
2022/02/18 08:56:59;;;;;;;17.40;4.03;;;8.60;99.90;;;;;;5031743;28;20516;-78
2022/02/18 08:59:25;;;;;;;23.43;4.97;;;8.70;99.90;;;;;;5035558;28;20503;-77
2022/02/18 09:01:51;;;;;;;21.47;4.50;;;8.60;99.90;;;;;;5035180;28;20555;-76
2022/02/18 09:04:17;;;;;;;20.07;5.20;;;8.70;99.90;;;;;;5035511;28;20033;-80
2022/02/18 09:06:42;;;;;;;19.97;5.63;;;8.70;99.90;;;;;;5018254;28;20088;-78
2022/02/18 09:09:08;;;;;;;17.10;4.47;;;8.70;99.90;;;;;;5035438;28;20059;-79
2022/02/18 09:11:34;;;;;;;24.67;5.30;;;8.80;99.90;;;;;;5053149;28;20172;-78
2022/02/18 09:13:59;;;;;;;21.67;5.00;;;8.80;99.90;;;;;;5019183;28;20477;-78
2022/02/18 09:16:25;;;;;;;19.47;5.60;;;8.80;99.90;;;;;;5018637;28;20036;-76
2022/02/18 09:18:51;;;;;;;18.57;5.13;;;8.90;99.90;;;;;;5018750;28;20056;-79
2022/02/18 09:21:17;;;;;;;21.20;4.77;;;9.00;99.90;;;;;;5052922;28;20083;-77
2022/02/18 09:23:43;;;;;;;18.17;4.93;;;9.00;99.90;;;;;;5035482;28;20029;-81
2022/02/18 09:26:09;;;;;;;9.33;3.93;;;9.10;99.90;;;;;;5018666;28;20029;-79
2022/02/18 09:28:35;;;;;;;12.50;3.97;;;9.20;99.90;;;;;;5035329;28;20061;-78
2022/02/18 09:31:00;;;;;;;15.27;4.83;;;9.30;99.90;;;;;;5035243;28;20033;-79
2022/02/18 09:33:27;;;;;;;18.43;5.00;;;9.30;99.90;;;;;;5018394;28;20029;-77
2022/02/18 09:35:53;;;;;;;12.63;4.60;;;9.40;99.90;;;;;;5052813;28;20113;-80
2022/02/18 09:38:19;;;;;;;13.90;4.40;;;9.40;99.90;;;;;;5002307;28;20029;-77
2022/02/18 09:40:45;;;;;;;11.07;3.97;;;9.40;99.90;;;;;;5034714;28;20367;-78
2022/02/18 09:43:11;;;;;;;12.37;4.20;;;9.50;99.90;;;;;;5052736;28;20040;-79
2022/02/18 09:45:37;;;;;;;11.23;3.23;;;9.50;99.90;;;;;;5018595;28;20029;-79
2022/02/18 09:48:04;;;;;;;10.13;3.60;;;9.60;99.90;;;;;;5022667;28;20470;-81
2022/02/18 09:50:30;;;;;;;13.93;3.97;;;9.60;99.90;;;;;;5022554;28;20095;-80
2022/02/18 09:52:57;;;;;;;8.40;3.43;;;9.70;99.90;;;;;;5038543;28;20120;-78
2022/02/18 09:55:23;;;;;;;8.23;3.63;;;9.70;99.90;;;;;;5022106;28;20025;-77
2022/02/18 09:57:56;;;;;;;13.80;4.03;;;9.80;99.90;;;;;;5038597;28;20072;-77
2022/02/18 10:00:22;;;;;;;9.10;3.30;;;9.80;99.90;;;;;;5038844;28;20021;-76
2022/02/18 10:02:49;;;;;;;8.73;3.33;;;9.80;99.90;;;;;;5005611;28;20028;-79
2022/02/18 10:05:15;;;;;;;7.23;2.87;;;9.80;99.90;;;;;;5021995;28;20033;-77
2022/02/18 10:08:11;;;;;;;8.13;3.37;;;9.90;99.90;;;;;;5056330;28;20526;-79
2022/02/18 10:10:39;;;;;;;8.60;2.53;;;9.90;99.90;;;;;;5056189;28;20049;-77
2022/02/18 10:13:27;;;;;;;6.87;3.03;;;10.00;99.90;;;;;;5038191;28;20032;-79
2022/02/18 10:15:56;;;;;;;4.97;2.17;;;10.10;99.90;;;;;;5056112;28;20356;-78
2022/02/18 10:18:22;;;;;;;7.40;2.33;;;10.10;99.90;;;;;;5056200;28;20040;-79
2022/02/18 10:20:49;;;;;;;5.07;1.90;;;10.20;99.90;;;;;;5038038;28;20579;-76
2022/02/18 10:23:18;;;;;;;5.07;1.67;;;10.20;99.90;;;;;;5038156;28;20078;-78
2022/02/18 10:25:45;;;;;;;4.17;1.90;;;10.30;99.90;;;;;;5038026;28;20024;-77
2022/02/18 10:28:16;;;;;;;3.40;1.70;;;10.30;99.90;;;;;;5038051;28;20032;-76
2022/02/18 10:30:44;;;;;;;3.83;1.50;;;10.40;99.90;;;;;;5037910;28;20017;-76
2022/02/18 10:33:20;;;;;;;6.20;1.40;;;10.50;99.90;;;;;;5056248;28;20079;-77
2022/02/18 10:35:47;;;;;;;4.20;1.63;;;10.50;99.90;;;;;;5038176;28;20096;-76
2022/02/18 10:38:13;;;;;;;4.85;1.67;;;10.60;99.90;;;;;;5055280;28;20021;-78
2022/02/18 10:40:49;;;;;;;4.53;1.53;;;10.60;99.90;;;;;;5037916;28;20036;-76
2022/02/18 10:43:18;;;;;;;3.63;1.37;;;10.60;99.90;;;;;;5021524;28;20116;-77
2022/02/18 10:45:55;;;;;;;4.63;1.17;;;10.70;99.90;;;;;;5056054;28;20021;-76
2022/02/18 10:48:23;;;;;;;4.70;1.60;;;10.70;99.90;;;;;;5037456;28;20028;-77
2022/02/18 10:51:07;;;;;;;5.65;1.45;;;10.80;99.90;;;;;;5037399;28;20021;-75
2022/02/18 10:53:38;;;;;;;2.30;1.00;;;10.80;99.90;;;;;;5036817;28;20028;-76
2022/02/18 10:56:05;;;;;;;4.23;1.67;;;10.80;99.90;;;;;;5054731;28;20465;-76
2022/02/18 10:58:32;;;;;;;3.92;1.25;;;10.90;99.90;;;;;;5053622;28;20042;-76
2022/02/18 11:01:16;;;;;;;4.68;1.38;;;10.90;99.90;;;;;;5037499;28;20461;-77
2022/02/18 11:03:50;;;;;;;3.08;1.02;;;11.00;99.90;;;;;;5054342;28;20466;-77
2022/02/18 11:06:33;;;;;;;6.10;1.10;;;11.00;99.90;;;;;;5037285;28;20021;-75
2022/02/18 11:09:09;;;;;;;4.00;1.10;;;11.10;99.90;;;;;;5055318;28;20491;-74
2022/02/18 11:11:45;;;;;;;2.35;0.88;;;11.10;99.90;;;;;;5055102;28;20523;-75
2022/02/18 11:14:16;;;;;;;3.67;1.10;;;11.10;99.90;;;;;;5037254;28;20530;-76
2022/02/18 11:16:52;;;;;;;1.48;0.70;;;11.20;99.90;;;;;;5036738;28;20071;-77
2022/02/18 11:19:25;;;;;;;2.65;1.10;;;11.20;99.90;;;;;;5021447;28;20049;-77
2022/02/18 11:21:51;;;;;;;3.35;0.82;;;11.30;99.90;;;;;;5020840;28;20029;-74
2022/02/18 11:24:20;;;;;;;6.75;1.02;;;11.30;99.90;;;;;;5054809;28;20041;-74
2022/02/18 11:26:45;;;;;;;1.95;0.80;;;11.40;99.90;;;;;;5037056;28;20032;-76
2022/02/18 11:29:11;;;;;;;3.58;1.20;;;11.40;99.90;;;;;;5055155;28;20037;-74
2022/02/18 11:31:40;;;;;;;4.45;0.70;;;11.50;99.90;;;;;;5054939;28;20401;-75
2022/02/18 11:34:08;;;;;;;1.73;0.60;;;11.50;99.90;;;;;;5054486;28;20025;-73
2022/02/18 11:37:11;;;;;;;4.18;0.80;;;11.60;99.90;;;;;;5054088;28;20025;-73
2022/02/18 11:40:06;;;;;;;1.88;0.60;;;11.70;99.90;;;;;;5054452;28;20075;-74
2022/02/18 11:42:34;;;;;;;;;;;11.70;99.90;;;;;;5036828;28;20546;-75
2022/02/18 11:45:00;;;;;;;5.05;0.63;;;11.70;99.90;;;;;;5054601;28;19904;-75
2022/02/18 11:47:33;;;;;;;1.98;0.50;;;11.80;99.90;;;;;;5054488;28;20039;-75
2022/02/18 11:50:08;;;;;;;1.75;0.65;;;11.80;99.90;;;;;;5037630;28;20508;-76
2022/02/18 11:52:43;;;;;;;2.25;0.50;;;11.80;99.90;;;;;;5036440;28;20029;-74
2022/02/18 11:55:27;;;;;;;1.30;0.43;;;11.90;99.90;;;;;;5036034;28;20063;-75
2022/02/18 11:58:13;;;;;;;3.30;0.50;;;11.90;99.90;;;;;;5054256;28;20037;-74
2022/02/18 12:00:44;;;;;;;0.77;0.40;;;12.00;99.90;;;;;;5054120;28;20491;-74
2022/02/18 12:03:11;;;;;;;1.02;0.50;;;12.00;99.90;;;;;;5036246;28;20035;-75
2022/02/18 12:05:56;;;;;;;2.30;0.52;;;12.10;99.90;;;;;;5054579;28;20492;-74
2022/02/18 12:08:29;;;;;;;1.33;0.40;;;12.10;99.90;;;;;;5053966;28;20041;-74
2022/02/18 12:10:55;;;;;;;1.10;0.40;;;12.20;99.90;;;;;;5054126;28;20025;-76
2022/02/18 12:13:21;;;;;;;1.60;0.60;;;12.30;99.90;;;;;;5054206;28;20079;-74
2022/02/18 12:15:49;;;;;;;1.33;0.50;;;12.30;99.90;;;;;;5036000;28;20022;-75
2022/02/18 12:18:24;;;;;;;1.88;0.50;;;12.30;99.90;;;;;;5054068;28;20028;-74
2022/02/18 12:21:08;;;;;;;1.83;0.50;;;12.40;99.90;;;;;;5054240;28;20017;-75
2022/02/18 12:23:41;;;;;;;1.90;0.50;;;12.40;99.90;;;;;;5053816;28;20029;-74
2022/02/18 12:26:19;;;;;;;2.75;0.50;;;12.40;99.90;;;;;;5035531;28;20030;-75
2022/02/18 12:28:46;;;;;;;1.17;0.50;;;12.60;99.90;;;;;;5035617;28;20412;-74
2022/02/18 12:31:12;;;;;;;0.60;0.30;;;12.40;99.90;;;;;;5019668;28;20036;-75
2022/02/18 12:33:40;;;;;;;1.33;0.50;;;12.50;99.90;;;;;;5053405;28;20063;-74
2022/02/18 12:36:08;;;;;;;1.55;0.40;;;12.50;99.90;;;;;;5053980;28;20025;-77
2022/02/18 12:38:34;;;;;;;2.25;0.40;;;12.50;99.90;;;;;;5035452;28;20469;-76
2022/02/18 12:41:03;;;;;;;1.88;0.50;;;12.50;99.90;;;;;;5036031;28;20023;-75
2022/02/18 12:43:29;;;;;;;1.15;0.40;;;12.60;99.90;;;;;;5020496;28;20033;-74
2022/02/18 12:46:05;;;;;;;1.52;0.43;;;12.60;99.90;;;;;;5053536;28;20074;-74
2022/02/18 12:48:51;;;;;;;2.58;0.50;;;12.50;99.90;;;;;;5036459;28;20409;-74